Time;durP1;ratioP1;P1;durP2;ratioP2;P2;SDS_P1;SDS_P2;PMS_P1;PMS_P2;Temp;Humidity;BMP_temperature;BMP_pressure;BME280_temperature;BME280_humidity;BME280_pressure;Samples;Min_cycle;Max_cycle;Signal;HPM_P1;HPM_P2
2023/09/12 00:01:13;;;;;;;17.50;10.70;;;;;;;9.99;100.00;101113.83;105710;1254;60538;-50
2023/09/12 00:03:41;;;;;;;21.50;11.70;;;;;;;9.97;100.00;101114.17;105713;1258;60432;-50
2023/09/12 00:06:09;;;;;;;22.30;11.20;;;;;;;9.91;100.00;101111.45;105661;1253;71625;-49
2023/09/12 00:08:37;;;;;;;17.90;10.30;;;;;;;9.87;100.00;101114.92;105678;1253;63537;-50
2023/09/12 00:11:06;;;;;;;19.70;10.10;;;;;;;9.83;100.00;101113.73;105647;1257;71477;-50
2023/09/12 00:13:34;;;;;;;19.70;10.10;;;;;;;9.79;100.00;101112.02;105701;1255;60538;-51
2023/09/12 00:16:02;;;;;;;17.30;11.20;;;;;;;9.74;100.00;101106.71;105696;1253;60458;-50
2023/09/12 00:18:30;;;;;;;19.20;10.60;;;;;;;9.71;100.00;101106.55;105704;1253;72568;-52
2023/09/12 00:21:00;;;;;;;16.40;10.40;;;;;;;9.69;100.00;101111.38;105735;1253;63198;-51
2023/09/12 00:23:28;;;;;;;19.30;9.90;;;;;;;9.67;100.00;101111.73;105755;1257;71497;-49
2023/09/12 00:25:57;;;;;;;17.80;9.80;;;;;;;9.65;100.00;101110.02;105698;1253;60553;-49
2023/09/12 00:28:25;;;;;;;24.50;10.70;;;;;;;9.61;100.00;101113.48;105738;1257;60426;-49
2023/09/12 00:30:52;;;;;;;20.00;9.70;;;;;;;9.60;100.00;101114.53;105659;1253;71616;-50
2023/09/12 00:33:20;;;;;;;17.50;9.90;;;;;;;9.59;100.00;101114.52;105678;1253;63766;-49
2023/09/12 00:35:48;;;;;;;17.50;11.40;;;;;;;9.55;100.00;101112.80;105724;1254;70256;-51
2023/09/12 00:38:16;;;;;;;24.20;10.40;;;;;;;9.49;100.00;101115.95;105679;1253;60666;-51
2023/09/12 00:40:44;;;;;;;18.40;9.20;;;;;;;9.46;100.00;101114.73;105731;1257;60521;-50
2023/09/12 00:43:11;;;;;;;19.60;9.80;;;;;;;9.44;100.00;101113.53;105684;1253;72596;-50
2023/09/12 00:45:39;;;;;;;12.70;10.10;;;;;;;9.42;100.00;101109.06;105702;1253;63194;-49
2023/09/12 00:48:09;;;;;;;17.80;10.20;;;;;;;9.40;100.00;101106.48;105668;1253;72669;-51
2023/09/12 00:50:36;;;;;;;19.10;11.80;;;;;;;9.38;100.00;101110.28;105696;1253;60432;-51
2023/09/12 00:53:04;;;;;;;16.30;10.70;;;;;;;9.34;100.00;101114.59;105614;1253;60810;-51
2023/09/12 00:55:32;;;;;;;16.50;9.70;;;;;;;9.31;100.00;101114.95;105635;1259;72637;-51
2023/09/12 00:58:00;;;;;;;16.60;9.10;;;;;;;9.27;100.00;101118.93;105692;1253;63139;-49
2023/09/12 01:00:29;;;;;;;17.40;10.10;;;;;;;9.22;100.00;101117.55;105698;1254;71452;-50
2023/09/12 01:02:57;;;;;;;16.90;10.30;;;;;;;9.16;100.00;101116.88;105679;1253;60539;-49
2023/09/12 01:05:25;;;;;;;15.20;9.20;;;;;;;9.13;100.00;101113.96;105671;1260;60413;-51
2023/09/12 01:07:53;;;;;;;17.30;9.40;;;;;;;9.11;100.00;101113.98;105772;1253;72658;-50
2023/09/12 01:10:21;;;;;;;19.00;8.60;;;;;;;9.10;100.00;101113.63;105630;1253;62496;-51
2023/09/12 01:12:49;;;;;;;18.40;9.70;;;;;;;9.08;100.00;101115.52;105641;1257;71393;-49
2023/09/12 01:15:16;;;;;;;15.00;9.60;;;;;;;9.03;100.00;101117.77;105708;1254;60539;-51
2023/09/12 01:17:45;;;;;;;21.30;8.70;;;;;;;8.98;100.00;101119.33;105764;1255;60352;-50
2023/09/12 01:20:25;;;;;;;12.70;7.90;;;;;;;8.94;100.00;101120.17;105719;1254;73828;-51
2023/09/12 01:22:54;;;;;;;19.10;8.70;;;;;;;8.93;100.00;101125.35;105759;1253;63758;-52
2023/09/12 01:25:39;;;;;;;15.50;8.90;;;;;;;8.91;100.00;101125.18;105664;1256;71445;-53
2023/09/12 01:28:09;;;;;;;15.60;9.50;;;;;;;8.89;100.00;101124.15;105685;1254;60484;-52
2023/09/12 01:30:36;;;;;;;20.20;9.50;;;;;;;8.87;100.00;101127.59;105677;1252;60471;-56
2023/09/12 01:33:04;;;;;;;20.00;10.30;;;;;;;8.84;100.00;101126.21;105652;1253;72614;-53
2023/09/12 01:35:32;;;;;;;20.20;10.20;;;;;;;8.81;100.00;101129.14;105666;1255;63143;-49
2023/09/12 01:38:00;;;;;;;13.70;8.30;;;;;;;8.80;100.00;101125.02;105610;1260;71355;-50
2023/09/12 01:40:50;;;;;;;15.40;8.20;;;;;;;8.78;100.00;101125.36;105667;1261;60538;-51
2023/09/12 01:43:21;;;;;;;9.10;7.20;;;;;;;8.76;100.00;101122.10;105703;1260;60510;-50
2023/09/12 01:45:53;;;;;;;8.70;6.80;;;;;;;8.76;100.00;101121.76;105676;1257;75163;-51
2023/09/12 01:48:23;;;;;;;13.70;8.50;;;;;;;8.77;100.00;101122.95;105726;1253;63622;-51
2023/09/12 01:50:51;;;;;;;14.90;8.20;;;;;;;8.78;100.00;101121.23;105668;1253;72624;-50
2023/09/12 01:53:19;;;;;;;8.30;6.70;;;;;;;8.78;100.00;101118.48;105663;1253;60907;-50
2023/09/12 01:57:13;;;;;;;14.70;8.00;;;;;;;8.80;100.00;101125.02;102690;1292;601480;-51
2023/09/12 01:59:42;;;;;;;12.40;8.30;;;;;;;8.78;100.00;101124.15;104780;1274;60887;-50
2023/09/12 02:02:10;;;;;;;10.20;7.20;;;;;;;8.74;100.00;101120.02;104805;1271;59236;-51
2023/09/12 02:04:37;;;;;;;17.60;8.60;;;;;;;8.70;100.00;101119.34;104811;1267;71020;-49
2023/09/12 02:07:05;;;;;;;12.90;8.70;;;;;;;8.67;100.00;101118.81;104815;1271;63121;-51
2023/09/12 02:09:33;;;;;;;10.40;7.30;;;;;;;8.64;100.00;101114.36;104767;1270;71372;-52
2023/09/12 02:12:01;;;;;;;13.10;7.30;;;;;;;8.62;100.00;101115.38;104674;1270;238757;-49
2023/09/12 02:14:29;;;;;;;15.50;7.90;;;;;;;8.59;100.00;101118.48;105221;1267;59273;-51
2023/09/12 02:16:57;;;;;;;15.00;7.60;;;;;;;8.55;100.00;101118.83;105211;1263;72225;-49
2023/09/12 02:19:26;;;;;;;9.70;7.20;;;;;;;8.50;100.00;101119.84;105099;1268;63202;-49
2023/09/12 02:21:55;;;;;;;9.10;7.30;;;;;;;8.45;100.00;101121.52;105104;1268;71392;-50
2023/09/12 02:24:24;;;;;;;9.60;6.00;;;;;;;8.43;100.00;101121.18;105149;1263;61144;-50
2023/09/12 02:26:52;;;;;;;10.10;7.00;;;;;;;8.42;100.00;101122.73;105055;1265;59720;-50
2023/09/12 02:29:20;;;;;;;9.20;6.10;;;;;;;8.41;100.00;101120.31;104861;1271;72986;-50
2023/09/12 02:31:48;;;;;;;8.50;5.70;;;;;;;8.41;100.00;101119.98;104904;1270;63137;-50
2023/09/12 02:34:16;;;;;;;11.00;7.00;;;;;;;8.43;100.00;101120.50;104942;1267;70350;-49
2023/09/12 02:36:44;;;;;;;11.80;6.50;;;;;;;8.44;100.00;101119.80;104864;1269;59651;-51
2023/09/12 02:39:11;;;;;;;12.90;6.70;;;;;;;8.45;100.00;101121.52;104901;1270;59616;-52
2023/09/12 02:41:39;;;;;;;13.90;6.70;;;;;;;8.46;100.00;101113.79;104981;1270;73837;-51
2023/09/12 02:44:07;;;;;;;11.00;7.10;;;;;;;8.47;100.00;101114.31;104955;1268;64387;-50
2023/09/12 02:46:36;;;;;;;9.20;6.80;;;;;;;8.48;100.00;101113.11;105439;1262;71460;-51
2023/09/12 02:49:04;;;;;;;10.10;7.00;;;;;;;8.51;100.00;101116.23;105487;1262;60026;-49
2023/09/12 02:51:31;;;;;;;8.70;6.10;;;;;;;8.55;100.00;101117.62;105511;1262;59551;-51
2023/09/12 02:53:59;;;;;;;8.30;5.80;;;;;;;8.60;100.00;101116.77;105597;1260;70810;-50
2023/09/12 02:56:27;;;;;;;8.20;5.80;;;;;;;8.62;100.00;101115.72;105570;1258;63626;-50
2023/09/12 02:58:55;;;;;;;11.00;6.80;;;;;;;8.60;100.00;101114.88;105461;1264;71404;-50
2023/09/12 03:01:22;;;;;;;11.20;7.00;;;;;;;8.56;100.00;101120.02;105440;1263;59741;-51
2023/09/12 03:03:50;;;;;;;17.60;8.00;;;;;;;8.54;100.00;101120.54;105581;1263;59619;-50
2023/09/12 03:06:18;;;;;;;14.90;8.00;;;;;;;8.52;100.00;101123.12;105620;1263;73019;-50
2023/09/12 03:08:47;;;;;;;9.40;7.00;;;;;;;8.50;100.00;101125.35;105553;1262;63117;-50
2023/09/12 03:11:15;;;;;;;16.10;8.40;;;;;;;8.46;100.00;101124.11;105436;1263;72592;-50
2023/09/12 03:13:42;;;;;;;16.80;7.80;;;;;;;8.43;100.00;101125.30;105425;1273;59736;-51
2023/09/12 03:16:11;;;;;;;12.40;7.30;;;;;;;8.40;100.00;101128.58;105390;1263;59996;-50
2023/09/12 03:18:38;;;;;;;11.70;6.90;;;;;;;8.38;100.00;101128.75;105437;1263;73004;-51
2023/09/12 03:21:07;;;;;;;13.00;7.30;;;;;;;8.37;100.00;101130.30;105624;1266;64474;-52
2023/09/12 03:23:35;;;;;;;8.80;6.90;;;;;;;8.36;100.00;101123.75;105440;1261;72658;-51
2023/09/12 03:26:03;;;;;;;8.90;6.50;;;;;;;8.37;100.00;101125.65;105551;1257;61667;-50
2023/09/12 03:28:31;;;;;;;11.10;7.50;;;;;;;8.38;100.00;101128.77;105613;1261;59728;-50
2023/09/12 03:31:14;;;;;;;14.10;7.00;;;;;;;8.41;100.00;101130.64;105371;1258;73061;-51
2023/09/12 03:33:42;;;;;;;12.00;7.70;;;;;;;8.44;100.00;101132.19;105523;1257;64445;-50
2023/09/12 03:36:11;;;;;;;9.80;6.60;;;;;;;8.45;100.00;101130.12;105274;1263;72728;-51
2023/09/12 03:38:38;;;;;;;9.60;7.00;;;;;;;8.43;100.00;101129.77;105547;1257;60025;-52
2023/09/12 03:41:07;;;;;;;13.20;8.00;;;;;;;8.43;100.00;101131.16;105635;1260;59880;-49
2023/09/12 03:43:36;;;;;;;10.60;6.90;;;;;;;8.42;100.00;101132.52;105578;1263;72207;-49
2023/09/12 03:46:04;;;;;;;15.90;7.90;;;;;;;8.39;100.00;101137.35;105550;1257;63743;-50
2023/09/12 03:48:32;;;;;;;17.60;8.60;;;;;;;8.38;100.00;101141.83;105543;1258;72610;-49
2023/09/12 03:51:00;;;;;;;15.40;9.10;;;;;;;8.37;100.00;101140.97;105418;1258;61682;-51
2023/09/12 03:53:28;;;;;;;16.30;9.40;;;;;;;8.38;100.00;101144.39;105443;1263;60013;-51
2023/09/12 03:55:57;;;;;;;17.00;10.70;;;;;;;8.41;100.00;101145.44;105537;1261;72422;-55
2023/09/12 03:58:25;;;;;;;13.40;9.00;;;;;;;8.45;100.00;101148.18;105384;1257;62441;-51
2023/09/12 04:00:53;;;;;;;11.10;8.20;;;;;;;8.50;100.00;101146.68;105409;1261;71799;-53
2023/09/12 04:03:21;;;;;;;13.10;8.50;;;;;;;8.55;100.00;101147.89;105538;1258;60660;-53
2023/09/12 04:05:51;;;;;;;16.70;9.40;;;;;;;8.61;100.00;101152.38;105565;1258;60020;-52
2023/09/12 04:08:19;;;;;;;20.30;10.90;;;;;;;8.70;100.00;101148.42;105630;1260;73089;-49
2023/09/12 04:10:46;;;;;;;24.00;11.20;;;;;;;8.79;100.00;101153.41;105477;1264;63171;-51
2023/09/12 04:13:14;;;;;;;19.10;10.50;;;;;;;8.89;100.00;101157.02;105543;1261;71594;-52
2023/09/12 04:15:42;;;;;;;20.80;10.20;;;;;;;9.00;100.00;101159.27;105423;1260;61702;-50
2023/09/12 04:18:10;;;;;;;69.50;33.80;;;;;;;9.11;100.00;101160.98;105462;1263;59648;-50
2023/09/12 04:20:38;;;;;;;29.40;16.10;;;;;;;9.25;100.00;101161.30;105439;1263;73123;-50
2023/09/12 04:23:06;;;;;;;37.20;15.90;;;;;;;9.40;100.00;101162.13;105623;1258;63196;-51
2023/09/12 04:25:33;;;;;;;24.50;15.00;;;;;;;9.58;100.00;101161.05;105396;1264;71461;-51
2023/09/12 04:28:02;;;;;;;29.10;15.00;;;;;;;9.77;100.00;101161.15;105509;1261;61699;-50
2023/09/12 04:30:30;;;;;;;29.10;13.90;;;;;;;9.99;100.00;101154.69;105530;1263;59685;-51
2023/09/12 04:32:59;;;;;;;27.30;14.50;;;;;;;10.23;100.00;101153.01;105435;1263;73115;-51
2023/09/12 04:35:26;;;;;;;34.60;17.50;;;;;;;10.49;100.00;101153.20;105485;1257;62462;-52
2023/09/12 04:37:54;;;;;;;37.30;14.00;;;;;;;10.76;100.00;101147.50;105553;1260;70973;-54
2023/09/12 04:40:22;;;;;;;23.70;13.10;;;;;;;11.04;100.00;101150.02;105441;1263;60410;-52
2023/09/12 04:42:50;;;;;;;20.30;12.80;;;;;;;11.32;100.00;101146.64;105390;1257;59964;-54
2023/09/12 04:45:18;;;;;;;21.10;10.80;;;;;;;11.61;100.00;101147.54;105580;1260;72095;-53
2023/09/12 04:47:46;;;;;;;19.20;11.30;;;;;;;11.89;100.00;101150.30;105526;1257;64436;-53
2023/09/12 04:50:14;;;;;;;17.90;10.00;;;;;;;12.14;100.00;101148.80;105467;1263;72641;-52
2023/09/12 04:52:42;;;;;;;16.30;9.40;;;;;;;12.33;100.00;101152.52;105453;1263;60022;-54
2023/09/12 04:55:10;;;;;;;21.70;8.90;;;;;;;12.45;100.00;101150.77;105504;1263;59672;-53
2023/09/12 04:57:37;;;;;;;17.00;9.60;;;;;;;12.56;100.00;101155.98;105574;1257;71790;-53
2023/09/12 05:00:10;;;;;;;12.20;7.70;;;;;;;12.65;100.00;101155.31;105478;1257;64351;-52
2023/09/12 05:02:38;;;;;;;23.00;8.30;;;;;;;12.74;100.00;101153.80;105299;1257;72726;-53
2023/09/12 05:05:06;;;;;;;19.20;9.10;;;;;;;12.79;100.00;101156.48;105539;1258;59714;-51
2023/09/12 05:07:34;;;;;;;13.00;8.70;;;;;;;12.82;100.00;101160.23;105578;1258;60427;-51
2023/09/12 05:10:03;;;;;;;26.40;8.70;;;;;;;12.85;100.00;101160.87;105591;1258;72494;-51
2023/09/12 05:12:31;;;;;;;22.10;8.80;;;;;;;12.84;100.00;101160.89;105564;1258;63156;-53
2023/09/12 05:14:59;;;;;;;22.80;9.20;;;;;;;12.85;100.00;101163.47;105482;1258;72683;-53
2023/09/12 05:17:27;;;;;;;19.00;9.30;;;;;;;12.85;100.00;101163.65;105610;1260;59746;-55
2023/09/12 05:19:56;;;;;;;15.60;8.70;;;;;;;12.88;100.00;101166.20;105559;1258;59705;-57
2023/09/12 05:22:24;;;;;;;20.20;9.90;;;;;;;12.92;100.00;101171.66;105422;1263;72137;-50
2023/09/12 05:24:51;;;;;;;17.50;9.80;;;;;;;12.98;100.00;101174.88;105530;1258;63231;-52
2023/09/12 05:27:19;;;;;;;17.80;10.40;;;;;;;12.99;100.00;101177.63;105566;1270;71395;-52
2023/09/12 05:29:47;;;;;;;23.90;9.40;;;;;;;13.00;100.00;101183.49;105585;1257;60467;-53
2023/09/12 05:32:16;;;;;;;24.20;9.40;;;;;;;13.01;100.00;101192.48;105548;1258;59572;-54
2023/09/12 05:34:45;;;;;;;15.20;8.20;;;;;;;13.07;100.00;101197.59;105461;1257;72207;-52
2023/09/12 05:37:13;;;;;;;27.40;9.30;;;;;;;13.12;100.00;101208.26;105703;1259;63228;-53
2023/09/12 05:39:41;;;;;;;18.80;9.50;;;;;;;13.19;100.00;101223.03;105874;1254;72695;-51
2023/09/12 05:42:09;;;;;;;23.30;9.20;;;;;;;13.26;100.00;101232.27;105697;1257;60860;-51
2023/09/12 05:44:37;;;;;;;22.30;9.20;;;;;;;13.34;100.00;101245.13;105670;1257;59551;-50
2023/09/12 05:47:06;;;;;;;23.60;8.50;;;;;;;13.42;100.00;101256.63;105661;1257;72251;-50
2023/09/12 05:49:34;;;;;;;18.80;9.60;;;;;;;13.53;100.00;101277.61;105732;1254;64456;-50
2023/09/12 05:52:04;;;;;;;21.90;9.20;;;;;;;13.63;100.00;101291.30;105722;1254;71381;-50
2023/09/12 05:54:31;;;;;;;19.30;10.40;;;;;;;13.73;100.00;101307.25;105712;1260;60694;-50
2023/09/12 05:56:59;;;;;;;25.40;10.30;;;;;;;13.82;100.00;101321.30;105714;1255;59818;-51
2023/09/12 05:59:27;;;;;;;19.40;8.10;;;;;;;13.95;100.00;101338.61;105666;1254;73078;-50
2023/09/12 06:01:55;;;;;;;15.20;8.00;;;;;;;14.05;100.00;101356.64;105654;1258;64391;-49
2023/09/12 06:04:23;;;;;;;19.20;8.50;;;;;;;14.16;100.00;101380.73;105708;1254;71102;-51
2023/09/12 06:06:51;;;;;;;15.10;8.00;;;;;;;14.28;100.00;101404.11;105677;1254;60483;-51
2023/09/12 06:09:19;;;;;;;18.40;9.40;;;;;;;14.38;100.00;101429.80;105717;1257;60435;-51
2023/09/12 06:11:47;;;;;;;11.80;8.50;;;;;;;14.49;100.00;101463.11;105664;1253;73866;-50
2023/09/12 06:14:15;;;;;;;15.70;7.90;;;;;;;14.61;100.00;101495.54;105690;1255;63515;-50
2023/09/12 06:16:43;;;;;;;37.40;8.60;;;;;;;14.74;100.00;101528.70;105673;1255;71737;-50
2023/09/12 06:19:10;;;;;;;20.50;8.20;;;;;;;14.84;100.00;101560.30;105887;1254;60541;-52
2023/09/12 06:21:38;;;;;;;23.40;8.60;;;;;;;14.95;100.00;101590.86;105708;1257;60432;-51
2023/09/12 06:24:13;;;;;;;42.10;8.80;;;;;;;15.08;100.00;101617.38;105654;1254;73383;-51
2023/09/12 06:26:41;;;;;;;14.40;7.60;;;;;;;15.20;100.00;101643.05;105743;1257;63239;-53
2023/09/12 06:29:09;;;;;;;21.30;8.30;;;;;;;15.32;100.00;101662.66;105682;1257;71433;-53
2023/09/12 06:31:37;;;;;;;19.90;8.30;;;;;;;15.44;100.00;101681.02;105636;1257;60445;-53
2023/09/12 06:34:04;;;;;;;23.30;8.10;;;;;;;15.56;100.00;101685.50;105741;1257;60421;-50
2023/09/12 06:36:32;;;;;;;27.20;8.30;;;;;;;15.67;100.00;101679.23;105696;1253;72714;-51
2023/09/12 06:39:00;;;;;;;20.70;7.60;;;;;;;15.76;100.00;101661.61;105683;1254;63272;-50
2023/09/12 06:41:28;;;;;;;19.50;7.40;;;;;;;15.88;100.00;101634.76;105745;1257;71208;-50
2023/09/12 06:43:58;;;;;;;27.30;8.40;;;;;;;15.98;100.00;101609.13;105656;1254;60533;-49
2023/09/12 06:46:27;;;;;;;12.30;7.30;;;;;;;16.07;100.00;101577.23;105684;1257;60431;-50
2023/09/12 06:48:56;;;;;;;19.30;7.40;;;;;;;16.19;100.00;101532.02;105731;1253;72630;-51
2023/09/12 06:51:25;;;;;;;23.30;6.80;;;;;;;16.33;100.00;101495.27;105706;1257;63131;-52
2023/09/12 06:53:57;;;;;;;19.00;6.00;;;;;;;16.49;100.00;101470.32;105644;1257;71488;-50
2023/09/12 06:56:25;;;;;;;17.10;6.10;;;;;;;16.60;100.00;101381.48;105857;1257;60540;-52
2023/09/12 06:58:54;;;;;;;16.20;5.70;;;;;;;16.72;100.00;101231.96;105710;1257;60370;-50
2023/09/12 07:01:22;;;;;;;12.20;6.00;;;;;;;16.85;100.00;101102.40;105695;1253;72645;-51
2023/09/12 07:03:53;;;;;;;10.90;5.80;;;;;;;16.98;100.00;100974.54;105700;1254;63290;-52
2023/09/12 07:06:22;;;;;;;16.00;5.70;;;;;;;17.14;100.00;100882.95;105665;1257;71825;-50
2023/09/12 07:08:51;;;;;;;10.70;5.50;;;;;;;17.33;100.00;100855.19;105714;1257;61605;-51
2023/09/12 07:11:19;;;;;;;11.20;5.30;;;;;;;17.49;100.00;100803.76;105730;1253;60409;-51
2023/09/12 07:13:47;;;;;;;13.70;5.70;;;;;;;17.63;100.00;100744.70;105739;1254;73007;-50
2023/09/12 07:16:17;;;;;;;12.40;5.50;;;;;;;17.80;100.00;100697.74;105717;1255;63103;-51
2023/09/12 07:18:45;;;;;;;16.50;5.60;;;;;;;17.96;100.00;100643.10;105750;1257;71588;-52
2023/09/12 07:21:14;;;;;;;20.10;5.60;;;;;;;18.13;100.00;100598.48;105703;1254;60471;-51
2023/09/12 07:23:41;;;;;;;28.10;5.50;;;;;;;18.33;100.00;100601.73;105691;1253;60470;-51
2023/09/12 07:26:13;;;;;;;20.70;5.40;;;;;;;18.53;100.00;100634.83;105738;1253;72826;-50
2023/09/12 07:28:41;;;;;;;16.20;5.70;;;;;;;18.72;100.00;100659.46;105787;1254;63234;-51
2023/09/12 07:31:09;;;;;;;24.70;5.50;;;;;;;18.89;100.00;100685.88;105661;1254;71416;-51
2023/09/12 07:33:36;;;;;;;22.20;6.20;;;;;;;19.06;100.00;100719.17;105885;1254;61209;-50
2023/09/12 07:37:47;;;;;;;21.90;6.80;;;;;;;19.29;100.00;100780.62;103073;1288;616865;-50
2023/09/12 07:40:14;;;;;;;20.20;5.00;;;;;;;19.49;100.00;100815.20;104878;1270;60502;-51
2023/09/12 07:42:41;;;;;;;14.90;5.10;;;;;;;19.69;100.00;100858.78;104841;1266;60203;-50
2023/09/12 07:45:09;;;;;;;14.10;5.30;;;;;;;19.92;100.00;100892.70;104873;1269;73661;-50
2023/09/12 07:47:37;;;;;;;21.10;4.90;;;;;;;20.14;100.00;100896.52;104890;1270;64648;-49
2023/09/12 07:50:06;;;;;;;24.20;5.00;;;;;;;20.33;100.00;100920.02;105374;1256;250896;-49
2023/09/12 07:52:34;;;;;;;8.30;4.50;;;;;;;20.52;100.00;100955.52;105632;1263;60094;-49
2023/09/12 07:55:02;;;;;;;6.00;3.90;;;;;;;20.68;100.00;100976.95;105646;1257;60331;-50
2023/09/12 07:57:29;;;;;;;8.40;4.10;;;;;;;20.86;99.67;100985.14;105614;1257;72290;-50
2023/09/12 07:59:57;;;;;;;6.00;4.10;;;;;;;20.99;93.51;100998.01;105652;1257;63151;-51
2023/09/12 08:02:23;;;;;;;8.80;4.30;;;;;;;21.04;84.00;100995.77;105693;1257;72530;-51
2023/09/12 08:04:50;;;;;;;6.00;4.00;;;;;;;21.03;79.99;101007.75;105587;1261;60345;-50
2023/09/12 08:07:17;;;;;;;7.70;3.80;;;;;;;21.04;74.23;100959.64;105613;1257;60161;-50
2023/09/12 08:09:55;;;;;;;14.40;4.40;;;;;;;21.08;72.28;100982.21;105640;1257;73088;-50
2023/09/12 08:12:24;;;;;;;34.00;4.80;;;;;;;21.30;74.54;101042.13;105688;1260;64850;-50
2023/09/12 08:14:51;;;;;;;21.30;4.10;;;;;;;21.52;74.50;101037.09;105629;1257;72635;-52
2023/09/12 08:17:19;;;;;;;15.90;4.10;;;;;;;21.74;74.32;101033.59;105608;1262;60247;-51
2023/09/12 08:19:46;;;;;;;40.80;5.80;;;;;;;21.88;69.61;100953.77;105694;1260;60791;-51
2023/09/12 08:22:13;;;;;;;19.30;4.40;;;;;;;21.94;68.24;100964.49;105616;1256;72976;-51
2023/09/12 08:24:40;;;;;;;14.70;3.70;;;;;;;22.05;68.94;100999.29;105636;1260;66083;-51
2023/09/12 08:27:07;;;;;;;5.80;3.70;;;;;;;22.20;69.60;101023.81;105632;1260;72715;-53
2023/09/12 08:29:34;;;;;;;24.80;4.30;;;;;;;22.44;69.16;101013.95;105678;1259;60495;-52
2023/09/12 08:32:01;;;;;;;16.60;3.80;;;;;;;22.71;66.64;100949.77;105714;1259;60528;-50
2023/09/12 08:34:28;;;;;;;9.60;4.30;;;;;;;22.87;63.04;100831.77;105672;1254;73069;-52
2023/09/12 08:36:56;;;;;;;6.40;3.60;;;;;;;22.94;62.50;100852.23;105713;1260;66045;-51
2023/09/12 08:39:24;;;;;;;10.10;3.40;;;;;;;23.14;60.26;100748.58;105672;1254;72651;-51
2023/09/12 08:41:52;;;;;;;5.50;3.20;;;;;;;23.27;59.98;100780.64;105690;1259;59727;-51
2023/09/12 08:44:20;;;;;;;11.60;3.50;;;;;;;23.33;60.34;100824.42;105686;1256;60076;-51
2023/09/12 08:46:47;;;;;;;18.60;3.70;;;;;;;23.35;58.68;100733.59;105650;1260;72884;-50
2023/09/12 08:49:15;;;;;;;7.30;3.00;;;;;;;23.39;57.41;100645.52;105699;1258;64681;-51
2023/09/12 08:51:42;;;;;;;6.10;3.50;;;;;;;23.53;57.82;100728.01;105603;1255;72692;-51
2023/09/12 08:54:09;;;;;;;4.30;3.20;;;;;;;23.69;56.85;100661.36;105655;1260;60392;-52
2023/09/12 08:56:38;;;;;;;5.70;2.80;;;;;;;23.70;54.82;100495.06;105754;1254;61464;-50
2023/09/12 08:59:06;;;;;;;3.60;2.80;;;;;;;23.59;54.22;100447.43;105701;1254;73000;-50
2023/09/12 09:01:33;;;;;;;9.20;3.00;;;;;;;23.63;54.34;100498.55;105644;1260;63022;-52
2023/09/12 09:04:02;;;;;;;8.10;4.10;;;;;;;23.84;55.34;100635.49;105674;1260;72539;-52
2023/09/12 09:06:32;;;;;;;7.40;3.10;;;;;;;24.00;55.43;100661.31;105680;1255;59736;-52
2023/09/12 09:09:00;;;;;;;7.30;3.20;;;;;;;24.31;55.29;100651.55;105708;1260;59995;-52
2023/09/12 09:11:27;;;;;;;3.30;3.00;;;;;;;24.76;54.69;100587.38;105669;1260;72858;-53
2023/09/12 09:13:56;;;;;;;11.80;3.40;;;;;;;25.24;54.43;100532.69;105721;1261;64366;-52
2023/09/12 09:16:23;;;;;;;5.10;3.10;;;;;;;25.71;52.84;100356.73;105730;1258;71804;-52
2023/09/12 09:19:00;;;;;;;3.70;3.10;;;;;;;26.00;51.32;100189.92;105681;1260;60228;-54
2023/09/12 09:21:30;;;;;;;6.40;2.90;;;;;;;26.10;49.64;100025.16;105681;1256;60287;-54
2023/09/12 09:24:05;;;;;;;6.90;3.00;;;;;;;26.02;48.20;99866.13;105694;1256;73303;-56
2023/09/12 09:26:44;;;;;;;4.50;3.30;;;;;;;25.79;49.25;100024.96;105676;1259;64526;-52
2023/09/12 09:29:15;;;;;;;3.70;3.30;;;;;;;25.47;49.18;100053.16;105687;1260;72613;-56
2023/09/12 09:31:43;;;;;;;3.30;3.00;;;;;;;25.27;49.40;100120.95;105689;1260;61625;-55
2023/09/12 09:34:11;;;;;;;5.50;3.40;;;;;;;25.15;49.96;100223.39;105744;1254;61513;-56
2023/09/12 09:36:42;;;;;;;6.00;3.80;;;;;;;25.17;49.97;100266.30;105703;1255;73151;-54
2023/09/12 09:39:10;;;;;;;9.30;3.60;;;;;;;25.09;48.77;100113.94;105666;1254;65176;-54
2023/09/12 09:41:38;;;;;;;9.60;3.80;;;;;;;24.99;49.03;100127.33;105576;1260;72366;-59
2023/09/12 09:44:08;;;;;;;9.70;3.90;;;;;;;25.07;50.11;100287.80;105708;1267;60358;-53
2023/09/12 09:46:38;;;;;;;5.70;3.20;;;;;;;25.06;49.41;100208.98;105753;1260;59628;-56
2023/09/12 09:49:07;;;;;;;9.00;3.50;;;;;;;25.11;50.00;100274.73;105691;1260;74254;-54
2023/09/12 09:51:45;;;;;;;7.30;3.70;;;;;;;25.33;48.68;100170.49;106029;1256;64643;-55
2023/09/12 09:54:13;;;;;;;10.80;3.40;;;;;;;25.10;48.65;100117.24;105939;1256;73923;-58
2023/09/12 09:56:47;;;;;;;12.40;3.40;;;;;;;25.05;49.17;100212.75;106014;1257;60807;-54
2023/09/12 09:59:20;;;;;;;9.70;3.60;;;;;;;25.18;49.82;100306.48;106063;1256;60374;-57
2023/09/12 10:01:48;;;;;;;13.00;3.90;;;;;;;25.44;49.40;100249.75;106053;1256;74280;-54
2023/09/12 10:04:16;;;;;;;5.00;3.10;;;;;;;25.71;49.88;100314.35;106007;1256;64607;-51
2023/09/12 10:06:44;;;;;;;11.20;3.40;;;;;;;26.02;48.79;100167.98;105978;1252;73086;-51
2023/09/12 10:09:12;;;;;;;7.10;3.70;;;;;;;26.19;47.09;99935.45;105969;1252;61379;-52
2023/09/12 10:11:40;;;;;;;3.30;3.00;;;;;;;26.16;46.24;99802.41;105934;1256;60354;-50
2023/09/12 10:14:08;;;;;;;13.30;3.40;;;;;;;25.90;45.61;99716.99;105870;1257;72809;-52
2023/09/12 10:16:38;;;;;;;4.10;3.40;;;;;;;25.66;46.70;99872.38;105734;1260;65940;-51
2023/09/12 10:19:24;;;;;;;11.40;3.90;;;;;;;25.61;45.88;99801.36;105992;1256;71663;-50
2023/09/12 10:21:58;;;;;;;22.90;3.60;;;;;;;25.60;46.33;99867.16;105963;1257;60337;-52
2023/09/12 10:24:25;;;;;;;5.10;3.00;;;;;;;25.55;45.06;99709.68;105949;1257;59984;-52
2023/09/12 10:26:52;;;;;;;27.30;3.60;;;;;;;25.58;46.18;99829.85;105867;1257;72939;-52
2023/09/12 10:29:19;;;;;;;18.40;3.70;;;;;;;25.90;45.17;99724.98;105992;1257;64776;-51
2023/09/12 10:31:47;;;;;;;6.60;3.30;;;;;;;26.05;44.98;99690.53;105999;1255;72653;-52
2023/09/12 10:34:14;;;;;;;20.20;4.20;;;;;;;26.17;44.96;99688.48;105977;1255;60642;-52
2023/09/12 10:36:45;;;;;;;9.80;3.90;;;;;;;26.18;45.96;99864.64;105967;1257;60412;-53
2023/09/12 10:39:12;;;;;;;7.50;3.40;;;;;;;26.10;44.98;99734.38;105939;1256;72947;-53
2023/09/12 10:41:40;;;;;;;4.10;3.30;;;;;;;26.00;44.91;99734.63;105923;1257;65158;-51
2023/09/12 10:44:10;;;;;;;4.90;3.10;;;;;;;26.10;45.22;99775.41;105948;1257;74038;-52
2023/09/12 10:46:40;;;;;;;6.80;3.40;;;;;;;26.12;44.96;99747.59;105975;1256;59822;-52
2023/09/12 10:49:11;;;;;;;3.40;3.10;;;;;;;26.18;45.21;99767.96;105913;1257;60289;-52
2023/09/12 10:51:42;;;;;;;7.80;3.10;;;;;;;26.21;44.25;99655.23;105978;1257;72054;-51
2023/09/12 10:54:13;;;;;;;34.80;4.90;;;;;;;26.26;43.99;99624.08;106004;1256;64928;-52
2023/09/12 10:56:40;;;;;;;63.50;6.50;;;;;;;26.27;44.71;99687.21;105981;1256;72896;-52
2023/09/12 10:59:06;;;;;;;25.40;3.70;;;;;;;26.32;44.24;99639.88;105847;1257;60328;-52
2023/09/12 11:01:34;;;;;;;7.20;3.70;;;;;;;26.43;45.18;99782.90;105939;1253;61891;-50
2023/09/12 11:04:30;;;;;;;3.70;3.40;;;;;;;26.60;43.59;99582.16;105995;1255;73629;-52
2023/09/12 11:06:58;;;;;;;4.90;3.40;;;;;;;26.63;44.11;99620.73;105959;1256;65156;-52
2023/09/12 11:09:28;;;;;;;6.70;3.50;;;;;;;26.78;44.38;99680.83;105968;1256;73204;-51
2023/09/12 11:11:57;;;;;;;7.50;3.50;;;;;;;27.03;44.62;99694.34;105978;1256;60756;-52
2023/09/12 11:14:26;;;;;;;6.50;3.30;;;;;;;27.31;44.28;99656.95;105982;1257;60273;-51
2023/09/12 11:17:08;;;;;;;11.40;3.50;;;;;;;27.41;42.50;99431.40;105955;1255;74295;-51
2023/09/12 11:19:48;;;;;;;12.70;3.40;;;;;;;27.26;42.62;99395.77;105988;1264;65212;-52